createdAt,value
2023-05-14T00:01:08.207Z,9.76
2023-05-14T00:04:10.552Z,9.72
2023-05-14T00:07:12.938Z,9.82
2023-05-14T00:10:15.245Z,9.78
2023-05-14T00:13:17.514Z,9.75
2023-05-14T00:16:20.099Z,9.78
2023-05-14T00:19:22.516Z,9.77
2023-05-14T00:22:24.973Z,9.76
2023-05-14T00:25:27.655Z,9.73
2023-05-14T00:28:29.919Z,9.74
2023-05-14T00:31:32.343Z,9.78
2023-05-14T00:34:35.144Z,9.78
2023-05-14T00:37:37.548Z,9.78
2023-05-14T00:40:41.561Z,9.83
2023-05-14T00:43:44.075Z,9.81
2023-05-14T00:46:46.411Z,9.85
2023-05-14T00:49:48.803Z,9.90
2023-05-14T00:52:51.085Z,9.89
2023-05-14T00:55:53.667Z,9.93
2023-05-14T00:58:56.058Z,9.92
2023-05-14T01:01:58.642Z,9.92
2023-05-14T01:05:01.540Z,9.92
2023-05-14T01:08:33.688Z,9.90
2023-05-14T01:11:48.732Z,9.92
2023-05-14T01:14:56.942Z,9.89
2023-05-14T01:18:03.403Z,9.96
2023-05-14T01:21:06.368Z,9.92
2023-05-14T01:24:09.413Z,9.84
2023-05-14T01:27:39.497Z,9.88
2023-05-14T01:31:01.620Z,9.94
2023-05-14T01:34:05.775Z,10.02
2023-05-14T01:37:09.840Z,9.97
2023-05-14T01:40:12.907Z,9.86
2023-05-14T01:43:16.102Z,9.78
2023-05-14T01:46:24.168Z,9.75
2023-05-14T01:49:26.548Z,9.81
2023-05-14T01:52:28.819Z,9.84
2023-05-14T01:55:31.192Z,9.74
2023-05-14T01:58:33.455Z,9.81
2023-05-14T02:01:36.077Z,9.80
2023-05-14T02:04:38.753Z,9.80
2023-05-14T02:07:41.045Z,9.87
2023-05-14T02:10:44.388Z,9.82
2023-05-14T02:13:46.795Z,9.85
2023-05-14T02:16:51.043Z,9.80
2023-05-14T02:19:53.448Z,9.76
2023-05-14T02:22:55.802Z,9.75
2023-05-14T02:25:58.052Z,9.76
2023-05-14T02:29:00.318Z,9.72
2023-05-14T02:32:02.553Z,9.67
2023-05-14T02:35:05.352Z,9.69
2023-05-14T02:38:08.073Z,9.60
2023-05-14T02:41:10.531Z,9.52
2023-05-14T02:44:13.468Z,9.58
2023-05-14T02:47:15.782Z,9.56
2023-05-14T02:50:18.120Z,9.61
2023-05-14T02:53:20.393Z,9.58
2023-05-14T02:56:22.663Z,9.66
2023-05-14T02:59:25.213Z,9.73
2023-05-14T03:02:28.428Z,9.72
2023-05-14T03:05:31.206Z,9.74
2023-05-14T03:08:33.553Z,9.78
2023-05-14T03:11:35.994Z,9.82
2023-05-14T03:14:38.249Z,9.81
2023-05-14T03:17:40.731Z,9.75
2023-05-14T03:20:43.163Z,9.73
2023-05-14T03:23:45.499Z,9.73
2023-05-14T03:26:47.823Z,9.71
2023-05-14T03:29:50.073Z,9.78
2023-05-14T03:32:52.508Z,9.78
2023-05-14T03:35:54.837Z,9.81
2023-05-14T03:38:57.095Z,9.87
2023-05-14T03:41:59.501Z,9.93
2023-05-14T03:45:02.096Z,10.02
2023-05-14T03:48:04.904Z,10.11
2023-05-14T03:51:08.080Z,10.20
2023-05-14T03:54:11.648Z,10.29
2023-05-14T03:57:14.167Z,10.31
2023-05-14T04:00:16.710Z,10.28
2023-05-14T04:03:19.415Z,10.40
2023-05-14T04:06:22.376Z,10.45
2023-05-14T04:09:24.820Z,10.44
2023-05-14T04:12:27.208Z,10.39
2023-05-14T04:15:30.049Z,10.41
2023-05-14T04:18:35.354Z,10.45
2023-05-14T04:21:37.687Z,10.47
2023-05-14T04:24:40.208Z,10.59
2023-05-14T04:27:42.515Z,10.59
2023-05-14T04:30:45.745Z,10.62
2023-05-14T04:33:48.397Z,10.68
2023-05-14T04:36:51.442Z,10.70
2023-05-14T04:39:53.791Z,10.70
2023-05-14T04:42:56.054Z,10.78
2023-05-14T04:45:58.392Z,10.72
2023-05-14T04:49:00.693Z,10.68
2023-05-14T04:52:02.957Z,10.72
2023-05-14T04:55:06.039Z,10.73
2023-05-14T04:58:08.404Z,10.75
2023-05-14T05:01:10.771Z,10.69
2023-05-14T05:04:13.526Z,10.71
2023-05-14T05:07:16.113Z,10.72
2023-05-14T05:10:18.417Z,10.70
2023-05-14T05:13:20.829Z,10.66
2023-05-14T05:16:23.276Z,10.75
2023-05-14T05:19:35.606Z,10.67
2023-05-14T05:22:42.282Z,10.75
2023-05-14T05:25:44.610Z,10.83
2023-05-14T05:28:46.892Z,10.92
2023-05-14T05:31:49.843Z,10.99
2023-05-14T05:34:52.166Z,11.04
2023-05-14T05:37:54.432Z,11.04
2023-05-14T05:40:56.823Z,10.98
2023-05-14T05:43:59.148Z,10.95
2023-05-14T05:47:01.707Z,11.01
2023-05-14T05:50:04.617Z,11.07
2023-05-14T05:53:06.895Z,11.02
2023-05-14T05:56:09.197Z,11.15
2023-05-14T05:59:11.531Z,11.22
2023-05-14T06:02:13.918Z,11.27
2023-05-14T06:05:16.471Z,11.22
2023-05-14T06:08:19.103Z,11.29
2023-05-14T06:11:21.862Z,11.27
2023-05-14T06:14:24.132Z,11.40
2023-05-14T06:17:26.909Z,11.53
2023-05-14T06:20:29.285Z,11.38
2023-05-14T06:23:31.568Z,11.52
2023-05-14T06:26:33.838Z,11.65
2023-05-14T06:29:36.484Z,11.64
2023-05-14T06:32:39.008Z,11.68
2023-05-14T06:35:41.550Z,11.72
2023-05-14T06:38:43.814Z,11.79
2023-05-14T06:41:46.106Z,11.85
2023-05-14T06:44:50.623Z,11.83
2023-05-14T06:47:53.008Z,11.89
2023-05-14T06:50:55.722Z,11.92
2023-05-14T06:53:58.248Z,12.00
2023-05-14T06:57:00.599Z,12.05
2023-05-14T07:00:03.779Z,12.03
2023-05-14T07:03:06.471Z,12.11
2023-05-14T07:06:09.291Z,12.25
2023-05-14T07:09:12.273Z,12.19
2023-05-14T07:12:14.584Z,12.19
2023-05-14T07:15:16.992Z,12.21
2023-05-14T07:18:19.425Z,12.09
2023-05-14T07:21:21.826Z,12.11
2023-05-14T07:24:24.298Z,12.31
2023-05-14T07:27:26.725Z,12.49
2023-05-14T07:30:29.040Z,12.60
2023-05-14T07:33:31.585Z,12.68
2023-05-14T07:36:34.069Z,12.81
2023-05-14T07:39:36.394Z,12.85
2023-05-14T07:42:38.814Z,12.89
2023-05-14T07:45:41.260Z,13.02
2023-05-14T07:48:43.689Z,13.15
2023-05-14T07:51:46.296Z,13.14
2023-05-14T07:54:50.614Z,13.45
2023-05-14T07:57:53.145Z,13.51
2023-05-14T08:00:56.616Z,13.57
2023-05-14T08:03:59.274Z,13.99
2023-05-14T08:07:01.868Z,14.02
2023-05-14T08:10:04.400Z,13.97
2023-05-14T08:13:06.796Z,14.08
2023-05-14T08:16:09.335Z,14.21
2023-05-14T08:19:12.925Z,14.47
2023-05-14T08:22:15.469Z,14.54
2023-05-14T08:25:17.753Z,14.63
2023-05-14T08:28:20.062Z,14.62
2023-05-14T08:31:22.470Z,14.63
2023-05-14T08:34:24.938Z,14.52
2023-05-14T08:37:27.346Z,14.48
2023-05-14T08:40:29.641Z,14.85
2023-05-14T08:43:55.128Z,14.78
2023-05-14T08:46:57.902Z,14.91
2023-05-14T08:50:05.486Z,14.94
2023-05-14T08:53:07.937Z,15.10
2023-05-14T08:56:10.494Z,15.12
2023-05-14T08:59:13.418Z,15.24
2023-05-14T09:02:17.423Z,15.11
2023-05-14T09:05:20.427Z,14.84
2023-05-14T09:08:23.181Z,15.07
2023-05-14T09:11:25.572Z,15.03
2023-05-14T09:14:28.016Z,14.72
2023-05-14T09:17:31.809Z,14.93
2023-05-14T09:20:34.709Z,14.88
2023-05-14T09:23:42.496Z,14.81
2023-05-14T09:26:44.806Z,14.66
2023-05-14T09:29:48.098Z,14.39
2023-05-14T09:32:54.135Z,14.53
2023-05-14T09:36:02.840Z,14.50
2023-05-14T09:39:05.382Z,14.31
2023-05-14T09:42:07.945Z,14.24
2023-05-14T09:45:10.877Z,14.40
2023-05-14T09:48:13.408Z,14.41
2023-05-14T09:51:21.340Z,14.34
2023-05-14T09:54:26.164Z,14.09
2023-05-14T09:57:29.114Z,14.01
2023-05-14T10:00:35.736Z,13.78
2023-05-14T10:03:38.310Z,13.79
2023-05-14T10:06:42.979Z,13.85
2023-05-14T10:09:46.424Z,13.76
2023-05-14T10:12:52.945Z,13.72
2023-05-14T10:16:08.282Z,13.78
2023-05-14T10:19:12.347Z,13.59
2023-05-14T10:22:17.753Z,13.74
2023-05-14T10:25:20.208Z,13.94
2023-05-14T10:28:22.702Z,14.01
2023-05-14T10:31:51.370Z,14.01
2023-05-14T10:34:54.034Z,14.10
2023-05-14T10:37:56.949Z,14.36
2023-05-14T10:41:21.664Z,14.41
2023-05-14T10:44:24.194Z,14.66
2023-05-14T10:47:27.049Z,14.79
2023-05-14T10:50:29.769Z,14.52
2023-05-14T10:53:43.135Z,14.40
2023-05-14T10:56:49.875Z,14.16
2023-05-14T10:59:55.189Z,14.22
2023-05-14T11:02:57.870Z,14.27
2023-05-14T11:06:03.974Z,14.33
2023-05-14T11:09:06.819Z,14.36
2023-05-14T11:12:09.417Z,14.19
2023-05-14T11:15:14.161Z,14.35
2023-05-14T11:18:29.351Z,14.47
2023-05-14T11:21:32.933Z,14.38
2023-05-14T11:24:35.462Z,14.30
2023-05-14T11:27:39.230Z,14.28
2023-05-14T11:30:41.758Z,14.19
2023-05-14T11:33:44.587Z,14.33
2023-05-14T11:36:46.884Z,14.20
2023-05-14T11:39:51.200Z,14.02
2023-05-14T11:42:53.791Z,13.95
2023-05-14T11:45:56.827Z,13.99
2023-05-14T11:48:59.182Z,13.89
2023-05-14T11:52:03.042Z,13.83
2023-05-14T11:55:06.374Z,13.56
2023-05-14T11:58:08.810Z,13.48
2023-05-14T12:01:13.654Z,13.28
2023-05-14T12:04:19.024Z,13.20
2023-05-14T12:07:21.420Z,13.22
2023-05-14T12:10:24.193Z,13.05
2023-05-14T12:13:28.314Z,13.11
2023-05-14T12:16:35.549Z,13.17
2023-05-14T12:19:42.011Z,13.18
2023-05-14T12:22:44.413Z,13.19
2023-05-14T12:25:51.430Z,13.18
2023-05-14T12:29:00.005Z,13.20
2023-05-14T12:32:04.671Z,13.17
2023-05-14T12:35:07.257Z,13.32
2023-05-14T12:38:09.845Z,13.10
2023-05-14T12:41:12.106Z,13.14
2023-05-14T12:44:14.378Z,13.09
2023-05-14T12:47:17.323Z,13.09
2023-05-14T12:50:19.786Z,13.13
2023-05-14T12:53:22.057Z,13.10
2023-05-14T12:56:28.256Z,13.18
2023-05-14T12:59:30.575Z,13.32
2023-05-14T13:02:32.890Z,13.25
2023-05-14T13:05:35.221Z,13.30
2023-05-14T13:08:37.555Z,13.29
2023-05-14T13:11:39.929Z,13.29
2023-05-14T13:14:42.208Z,13.32
2023-05-14T13:17:44.596Z,13.05
2023-05-14T13:20:50.113Z,13.18
2023-05-14T13:23:52.407Z,13.20
2023-05-14T13:26:54.784Z,13.16
2023-05-14T13:29:57.119Z,13.19
2023-05-14T13:33:00.097Z,13.18
2023-05-14T13:36:02.864Z,13.16
2023-05-14T13:39:06.856Z,13.04
2023-05-14T13:42:09.411Z,13.03
2023-05-14T13:45:13.112Z,12.92
2023-05-14T13:48:15.502Z,12.99
2023-05-14T13:51:17.931Z,13.12
2023-05-14T13:54:20.355Z,13.07
2023-05-14T13:57:23.148Z,13.02
2023-05-14T14:00:27.172Z,12.97
2023-05-14T14:03:29.453Z,12.90
2023-05-14T14:06:34.635Z,12.81
2023-05-14T14:09:36.973Z,12.61
2023-05-14T14:12:39.349Z,12.62
2023-05-14T14:15:41.732Z,12.61
2023-05-14T14:18:45.126Z,12.55
2023-05-14T14:21:47.842Z,12.55
2023-05-14T14:24:50.136Z,12.35
2023-05-14T14:27:52.532Z,12.32
2023-05-14T14:30:54.834Z,12.17
2023-05-14T14:33:57.188Z,12.11
2023-05-14T14:36:59.486Z,12.09
2023-05-14T14:40:01.743Z,12.05
2023-05-14T14:43:04.075Z,12.00
2023-05-14T14:46:06.717Z,11.97
2023-05-14T14:49:09.165Z,11.92
2023-05-14T14:52:11.491Z,11.92
2023-05-14T14:55:13.777Z,11.91
2023-05-14T14:58:16.085Z,11.95
2023-05-14T15:01:18.584Z,11.87
2023-05-14T15:04:20.886Z,11.93
2023-05-14T15:07:23.169Z,11.74
2023-05-14T15:10:28.645Z,11.71
2023-05-14T15:13:31.228Z,11.71
2023-05-14T15:16:33.619Z,11.85
2023-05-14T15:19:36.232Z,11.83
2023-05-14T15:22:38.645Z,11.76
2023-05-14T15:25:41.052Z,11.78
2023-05-14T15:28:43.637Z,11.84
2023-05-14T15:31:46.231Z,11.79
2023-05-14T15:34:48.501Z,11.67
2023-05-14T15:37:50.904Z,11.75
2023-05-14T15:40:53.304Z,11.59
2023-05-14T15:43:56.231Z,11.61
2023-05-14T15:46:58.546Z,11.63
2023-05-14T15:50:01.216Z,11.67
2023-05-14T15:53:03.626Z,11.64
2023-05-14T15:56:06.303Z,11.64
2023-05-14T15:59:08.664Z,11.61
2023-05-14T16:02:11.396Z,11.60
2023-05-14T16:05:15.178Z,11.57
2023-05-14T16:08:17.477Z,11.55
2023-05-14T16:11:19.757Z,11.60
2023-05-14T16:14:22.898Z,11.63
2023-05-14T16:17:26.811Z,11.69
2023-05-14T16:20:29.195Z,11.63
2023-05-14T16:23:31.449Z,11.62
2023-05-14T16:26:33.838Z,11.55
2023-05-14T16:29:36.298Z,11.54
2023-05-14T16:32:38.703Z,11.54
2023-05-14T16:35:41.100Z,11.58
2023-05-14T16:38:57.170Z,11.55
2023-05-14T16:42:06.193Z,11.51
2023-05-14T16:45:09.119Z,11.57
2023-05-14T16:48:11.656Z,11.47
2023-05-14T16:51:14.115Z,11.58
2023-05-14T16:54:16.681Z,11.60
2023-05-14T16:57:19.127Z,11.60
2023-05-14T17:00:21.561Z,11.45
2023-05-14T17:03:23.954Z,11.51
2023-05-14T17:06:26.283Z,11.55
2023-05-14T17:09:28.645Z,11.49
2023-05-14T17:12:30.946Z,11.50
2023-05-14T17:15:33.636Z,11.43
2023-05-14T17:18:36.061Z,11.46
2023-05-14T17:21:38.393Z,11.46
2023-05-14T17:24:40.786Z,11.46
2023-05-14T17:27:43.076Z,11.49
2023-05-14T17:30:45.641Z,11.46
2023-05-14T17:33:47.921Z,11.46
2023-05-14T17:36:50.495Z,11.48
2023-05-14T17:39:53.175Z,11.46
2023-05-14T17:42:55.443Z,11.45
2023-05-14T17:45:57.952Z,11.43
2023-05-14T17:49:00.216Z,11.43
2023-05-14T17:52:02.826Z,11.33
2023-05-14T17:55:05.592Z,11.38
2023-05-14T17:58:07.918Z,11.42
2023-05-14T18:01:10.318Z,11.41
2023-05-14T18:04:12.827Z,11.45
2023-05-14T18:07:15.193Z,11.43
2023-05-14T18:10:17.783Z,11.39
2023-05-14T18:13:20.176Z,11.45
2023-05-14T18:16:26.916Z,11.45
2023-05-14T18:19:29.241Z,11.40
2023-05-14T18:22:32.154Z,11.45
2023-05-14T18:25:34.435Z,11.52
2023-05-14T18:28:37.289Z,11.49
2023-05-14T18:31:39.573Z,11.43
2023-05-14T18:34:41.860Z,11.35
2023-05-14T18:37:44.122Z,11.40
2023-05-14T18:40:46.665Z,11.43
2023-05-14T18:43:48.910Z,11.47
2023-05-14T18:46:51.289Z,11.38
2023-05-14T18:49:55.790Z,11.37
2023-05-14T18:53:02.948Z,11.42
2023-05-14T18:56:15.365Z,11.39
2023-05-14T18:59:18.944Z,11.40
2023-05-14T19:02:22.150Z,11.39
2023-05-14T19:05:24.646Z,11.28
2023-05-14T19:08:33.541Z,11.34
2023-05-14T19:11:40.002Z,11.32
2023-05-14T19:14:54.646Z,11.32
2023-05-14T19:17:57.719Z,11.23
2023-05-14T19:21:00.052Z,11.29
2023-05-14T19:24:02.918Z,11.39
2023-05-14T19:27:05.936Z,11.35
2023-05-14T19:30:33.956Z,11.35
2023-05-14T19:33:39.219Z,11.33
2023-05-14T19:36:42.080Z,11.30
2023-05-14T19:39:44.640Z,11.32
2023-05-14T19:42:51.788Z,11.34
2023-05-14T19:45:54.727Z,11.25
2023-05-14T19:48:57.845Z,11.32
2023-05-14T19:52:00.458Z,11.31
2023-05-14T19:55:02.813Z,11.29
2023-05-14T19:58:05.088Z,11.32
2023-05-14T20:01:07.979Z,11.30
2023-05-14T20:04:12.072Z,11.30
2023-05-14T20:07:30.225Z,11.34
2023-05-14T20:10:32.452Z,11.34
2023-05-14T20:13:38.743Z,11.36
2023-05-14T20:16:41.709Z,11.36
2023-05-14T20:19:50.173Z,11.33
2023-05-14T20:23:21.682Z,11.31
2023-05-14T20:26:24.025Z,11.37
2023-05-14T20:29:26.328Z,11.35
2023-05-14T20:32:28.727Z,11.23
2023-05-14T20:35:31.272Z,11.34
2023-05-14T20:38:35.016Z,11.33
2023-05-14T20:41:37.949Z,11.32
2023-05-14T20:44:40.318Z,11.33
2023-05-14T20:47:42.722Z,11.34
2023-05-14T20:50:44.954Z,11.30
2023-05-14T20:53:47.509Z,11.39
2023-05-14T20:56:49.818Z,11.36
2023-05-14T20:59:52.106Z,11.41
2023-05-14T21:02:54.628Z,11.36
2023-05-14T21:05:57.081Z,11.44
2023-05-14T21:08:59.507Z,11.40
2023-05-14T21:12:01.789Z,11.45
2023-05-14T21:15:04.553Z,11.40
2023-05-14T21:18:06.853Z,11.35
2023-05-14T21:21:09.174Z,11.42
2023-05-14T21:24:11.489Z,11.46
2023-05-14T21:27:13.807Z,11.50
2023-05-14T21:30:16.085Z,11.47
2023-05-14T21:33:18.964Z,11.49
2023-05-14T21:36:21.396Z,11.48
2023-05-14T21:39:23.646Z,11.45
2023-05-14T21:42:26.004Z,11.40
2023-05-14T21:45:28.689Z,11.42
2023-05-14T21:48:31.175Z,11.42
2023-05-14T21:51:34.077Z,11.39
2023-05-14T21:54:36.392Z,11.41
2023-05-14T21:57:38.633Z,11.41
2023-05-14T22:00:41.204Z,11.37
2023-05-14T22:03:43.501Z,11.41
2023-05-14T22:06:46.000Z,11.39
2023-05-14T22:09:49.333Z,11.37
2023-05-14T22:12:52.363Z,11.37
2023-05-14T22:16:01.350Z,11.38
2023-05-14T22:19:16.455Z,11.30
2023-05-14T22:22:19.059Z,11.36
2023-05-14T22:25:21.327Z,11.38
2023-05-14T22:28:23.788Z,11.43
2023-05-14T22:31:26.081Z,11.42
2023-05-14T22:34:28.394Z,11.42
2023-05-14T22:37:30.801Z,11.45
2023-05-14T22:40:33.129Z,11.45
2023-05-14T22:43:35.410Z,11.39
2023-05-14T22:46:37.894Z,11.45
2023-05-14T22:49:40.717Z,11.47
2023-05-14T22:52:42.994Z,11.46
2023-05-14T22:55:45.581Z,11.44
2023-05-14T22:58:48.061Z,11.47
2023-05-14T23:01:50.462Z,11.42
2023-05-14T23:04:52.933Z,11.40
2023-05-14T23:07:55.500Z,11.41
2023-05-14T23:10:57.738Z,11.42
2023-05-14T23:14:00.010Z,11.47
2023-05-14T23:17:02.237Z,11.43
2023-05-14T23:20:06.054Z,11.43
2023-05-14T23:23:08.493Z,11.47
2023-05-14T23:26:11.008Z,11.50
2023-05-14T23:29:13.288Z,11.50
2023-05-14T23:32:15.636Z,11.48
2023-05-14T23:35:17.936Z,11.49
2023-05-14T23:38:21.012Z,11.50
2023-05-14T23:41:23.372Z,11.50
2023-05-14T23:44:26.930Z,11.51
2023-05-14T23:47:29.301Z,11.58
2023-05-14T23:50:31.928Z,11.55
2023-05-14T23:53:34.616Z,11.56
2023-05-14T23:56:37.307Z,11.56
2023-05-14T23:59:40.535Z,11.59
